sensor_id;sensor_type;location;lat;lon;timestamp;pressure;altitude;pressure_sealevel;temperature;humidity
49315;BME280;36672;50.710;12.498;2022-08-07T00:00:58;99434.59;;;12.45;63.56
49315;BME280;36672;50.710;12.498;2022-08-07T00:03:23;99437.00;;;12.40;63.35
49315;BME280;36672;50.710;12.498;2022-08-07T00:05:50;99434.47;;;12.38;63.38
49315;BME280;36672;50.710;12.498;2022-08-07T00:08:17;99421.13;;;12.37;63.67
49315;BME280;36672;50.710;12.498;2022-08-07T00:10:43;99425.72;;;12.36;63.35
49315;BME280;36672;50.710;12.498;2022-08-07T00:13:08;99428.97;;;12.32;63.55
49315;BME280;36672;50.710;12.498;2022-08-07T00:15:33;99426.66;;;12.29;63.58
49315;BME280;36672;50.710;12.498;2022-08-07T00:17:59;99429.38;;;12.29;63.37
49315;BME280;36672;50.710;12.498;2022-08-07T00:20:25;99420.59;;;12.27;64.13
49315;BME280;36672;50.710;12.498;2022-08-07T00:22:50;99427.56;;;12.21;64.03
49315;BME280;36672;50.710;12.498;2022-08-07T00:25:15;99429.19;;;12.15;63.95
49315;BME280;36672;50.710;12.498;2022-08-07T00:27:40;99424.13;;;12.12;64.07
49315;BME280;36672;50.710;12.498;2022-08-07T00:30:06;99421.63;;;12.11;63.93
49315;BME280;36672;50.710;12.498;2022-08-07T00:32:31;99413.69;;;12.09;63.83
49315;BME280;36672;50.710;12.498;2022-08-07T00:34:56;99414.91;;;12.06;63.82
49315;BME280;36672;50.710;12.498;2022-08-07T00:37:22;99414.22;;;12.04;64.38
49315;BME280;36672;50.710;12.498;2022-08-07T00:39:48;99414.22;;;12.04;64.03
49315;BME280;36672;50.710;12.498;2022-08-07T00:42:14;99406.50;;;12.01;64.02
49315;BME280;36672;50.710;12.498;2022-08-07T00:44:39;99401.28;;;12.00;64.46
49315;BME280;36672;50.710;12.498;2022-08-07T00:47:05;99409.56;;;11.98;64.07
49315;BME280;36672;50.710;12.498;2022-08-07T00:49:30;99408.41;;;11.93;64.24
49315;BME280;36672;50.710;12.498;2022-08-07T00:51:55;99412.16;;;11.91;65.10
49315;BME280;36672;50.710;12.498;2022-08-07T00:54:21;99408.97;;;11.88;65.28
49315;BME280;36672;50.710;12.498;2022-08-07T00:56:47;99409.34;;;11.85;65.00
49315;BME280;36672;50.710;12.498;2022-08-07T00:59:12;99413.47;;;11.81;64.78
49315;BME280;36672;50.710;12.498;2022-08-07T01:01:38;99414.50;;;11.80;65.01
49315;BME280;36672;50.710;12.498;2022-08-07T01:04:04;99409.81;;;11.73;65.06
49315;BME280;36672;50.710;12.498;2022-08-07T01:06:29;99409.16;;;11.71;65.36
49315;BME280;36672;50.710;12.498;2022-08-07T01:08:55;99403.25;;;11.68;65.71
49315;BME280;36672;50.710;12.498;2022-08-07T01:11:21;99400.94;;;11.65;65.43
49315;BME280;36672;50.710;12.498;2022-08-07T01:13:46;99400.09;;;11.64;65.73
49315;BME280;36672;50.710;12.498;2022-08-07T01:16:12;99400.66;;;11.59;65.43
49315;BME280;36672;50.710;12.498;2022-08-07T01:18:39;99399.16;;;11.57;65.75
49315;BME280;36672;50.710;12.498;2022-08-07T01:21:08;99404.75;;;11.55;65.89
49315;BME280;36672;50.710;12.498;2022-08-07T01:23:34;99396.34;;;11.50;66.06
49315;BME280;36672;50.710;12.498;2022-08-07T01:26:00;99399.22;;;11.49;66.12
49315;BME280;36672;50.710;12.498;2022-08-07T01:28:26;99402.31;;;11.46;66.45
49315;BME280;36672;50.710;12.498;2022-08-07T01:30:51;99395.22;;;11.45;65.77
49315;BME280;36672;50.710;12.498;2022-08-07T01:33:18;99401.16;;;11.40;66.72
49315;BME280;36672;50.710;12.498;2022-08-07T01:35:43;99403.22;;;11.38;66.46
49315;BME280;36672;50.710;12.498;2022-08-07T01:38:09;99401.25;;;11.32;66.04
49315;BME280;36672;50.710;12.498;2022-08-07T01:40:34;99406.00;;;11.30;66.53
49315;BME280;36672;50.710;12.498;2022-08-07T01:43:00;99400.78;;;11.28;67.07
49315;BME280;36672;50.710;12.498;2022-08-07T01:45:25;99398.44;;;11.25;66.64
49315;BME280;36672;50.710;12.498;2022-08-07T01:47:51;99396.94;;;11.22;66.67
49315;BME280;36672;50.710;12.498;2022-08-07T01:50:16;99406.72;;;11.23;66.57
49315;BME280;36672;50.710;12.498;2022-08-07T01:52:42;99409.44;;;11.23;67.09
49315;BME280;36672;50.710;12.498;2022-08-07T01:55:09;99404.41;;;11.20;66.69
49315;BME280;36672;50.710;12.498;2022-08-07T01:57:35;99409.13;;;11.18;67.33
49315;BME280;36672;50.710;12.498;2022-08-07T02:00:06;99407.81;;;11.14;66.64
49315;BME280;36672;50.710;12.498;2022-08-07T02:02:35;99408.19;;;11.11;66.82
49315;BME280;36672;50.710;12.498;2022-08-07T02:05:03;99405.84;;;11.08;67.59
49315;BME280;36672;50.710;12.498;2022-08-07T02:07:31;99408.06;;;11.04;67.51
49315;BME280;36672;50.710;12.498;2022-08-07T02:09:57;99407.59;;;11.01;67.23
49315;BME280;36672;50.710;12.498;2022-08-07T02:12:23;99409.63;;;10.99;67.71
49315;BME280;36672;50.710;12.498;2022-08-07T02:14:51;99405.25;;;10.98;68.11
49315;BME280;36672;50.710;12.498;2022-08-07T02:17:17;99403.75;;;10.95;67.67
49315;BME280;36672;50.710;12.498;2022-08-07T02:19:44;99408.31;;;10.95;67.95
49315;BME280;36672;50.710;12.498;2022-08-07T02:22:13;99410.72;;;10.89;67.93
49315;BME280;36672;50.710;12.498;2022-08-07T02:24:40;99403.97;;;10.85;68.07
49315;BME280;36672;50.710;12.498;2022-08-07T02:27:05;99411.97;;;10.79;68.77
49315;BME280;36672;50.710;12.498;2022-08-07T02:29:32;99403.19;;;10.76;68.45
49315;BME280;36672;50.710;12.498;2022-08-07T02:31:59;99409.78;;;10.74;68.23
49315;BME280;36672;50.710;12.498;2022-08-07T02:34:25;99401.03;;;10.72;69.02
49315;BME280;36672;50.710;12.498;2022-08-07T02:36:51;99401.38;;;10.69;69.09
49315;BME280;36672;50.710;12.498;2022-08-07T02:39:17;99398.88;;;10.67;69.46
49315;BME280;36672;50.710;12.498;2022-08-07T02:41:43;99397.38;;;10.65;68.46
49315;BME280;36672;50.710;12.498;2022-08-07T02:44:08;99385.88;;;10.63;68.97
49315;BME280;36672;50.710;12.498;2022-08-07T02:46:34;99392.66;;;10.58;69.63
49315;BME280;36672;50.710;12.498;2022-08-07T02:49:00;99391.34;;;10.54;69.29
49315;BME280;36672;50.710;12.498;2022-08-07T02:51:25;99390.88;;;10.51;69.08
49315;BME280;36672;50.710;12.498;2022-08-07T02:53:52;99387.66;;;10.47;69.54
49315;BME280;36672;50.710;12.498;2022-08-07T02:56:18;99387.03;;;10.45;69.40
49315;BME280;36672;50.710;12.498;2022-08-07T02:58:45;99392.09;;;10.40;69.31
49315;BME280;36672;50.710;12.498;2022-08-07T03:01:10;99377.25;;;10.36;69.89
49315;BME280;36672;50.710;12.498;2022-08-07T03:03:36;99390.91;;;10.34;69.82
49315;BME280;36672;50.710;12.498;2022-08-07T03:06:02;99380.31;;;10.33;69.63
49315;BME280;36672;50.710;12.498;2022-08-07T03:08:28;99380.47;;;10.31;69.36
49315;BME280;36672;50.710;12.498;2022-08-07T03:10:54;99376.94;;;10.31;70.09
49315;BME280;36672;50.710;12.498;2022-08-07T03:13:19;99374.22;;;10.31;69.31
49315;BME280;36672;50.710;12.498;2022-08-07T03:15:45;99374.41;;;10.29;69.86
49315;BME280;36672;50.710;12.498;2022-08-07T03:18:11;99377.09;;;10.29;69.56
49315;BME280;36672;50.710;12.498;2022-08-07T03:20:37;99370.03;;;10.28;69.71
49315;BME280;36672;50.710;12.498;2022-08-07T03:23:03;99378.13;;;10.28;70.03
49315;BME280;36672;50.710;12.498;2022-08-07T03:25:28;99373.72;;;10.27;69.26
49315;BME280;36672;50.710;12.498;2022-08-07T03:27:55;99380.16;;;10.26;69.73
49315;BME280;36672;50.710;12.498;2022-08-07T03:30:21;99367.19;;;10.21;69.21
49315;BME280;36672;50.710;12.498;2022-08-07T03:32:47;99366.69;;;10.18;70.05
49315;BME280;36672;50.710;12.498;2022-08-07T03:35:17;99368.56;;;10.17;69.60
49315;BME280;36672;50.710;12.498;2022-08-07T03:37:46;99373.13;;;10.17;69.78
49315;BME280;36672;50.710;12.498;2022-08-07T03:40:12;99378.69;;;10.15;69.68
49315;BME280;36672;50.710;12.498;2022-08-07T03:42:37;99380.38;;;10.16;69.96
49315;BME280;36672;50.710;12.498;2022-08-07T03:45:03;99380.56;;;10.15;69.87
49315;BME280;36672;50.710;12.498;2022-08-07T03:47:29;99377.38;;;10.11;69.87
49315;BME280;36672;50.710;12.498;2022-08-07T03:49:55;99378.38;;;10.10;70.31
49315;BME280;36672;50.710;12.498;2022-08-07T03:52:21;99374.81;;;10.09;69.57
49315;BME280;36672;50.710;12.498;2022-08-07T03:54:47;99376.88;;;10.07;69.93
49315;BME280;36672;50.710;12.498;2022-08-07T03:57:13;99378.56;;;10.08;69.69
49315;BME280;36672;50.710;12.498;2022-08-07T03:59:39;99372.97;;;10.10;69.73
49315;BME280;36672;50.710;12.498;2022-08-07T04:02:05;99376.50;;;10.10;69.83
49315;BME280;36672;50.710;12.498;2022-08-07T04:04:32;99377.69;;;10.08;70.18
49315;BME280;36672;50.710;12.498;2022-08-07T04:06:57;99377.69;;;10.08;69.35
49315;BME280;36672;50.710;12.498;2022-08-07T04:09:22;99381.78;;;10.04;70.09
49315;BME280;36672;50.710;12.498;2022-08-07T04:11:48;99383.66;;;10.03;69.66
49315;BME280;36672;50.710;12.498;2022-08-07T04:14:13;99375.56;;;10.03;70.19
49315;BME280;36672;50.710;12.498;2022-08-07T04:16:39;99369.97;;;10.05;70.28
49315;BME280;36672;50.710;12.498;2022-08-07T04:19:04;99380.41;;;10.08;69.89
49315;BME280;36672;50.710;12.498;2022-08-07T04:21:31;99379.41;;;10.09;70.07
49315;BME280;36672;50.710;12.498;2022-08-07T04:23:57;99383.41;;;10.13;69.82
49315;BME280;36672;50.710;12.498;2022-08-07T04:26:22;99382.91;;;10.18;69.41
49315;BME280;36672;50.710;12.498;2022-08-07T04:28:48;99388.97;;;10.20;69.57
49315;BME280;36672;50.710;12.498;2022-08-07T04:31:13;99393.84;;;10.24;69.65
49315;BME280;36672;50.710;12.498;2022-08-07T04:33:38;99387.72;;;10.31;69.59
49315;BME280;36672;50.710;12.498;2022-08-07T04:36:04;99379.78;;;10.37;69.48
49315;BME280;36672;50.710;12.498;2022-08-07T04:38:32;99382.97;;;10.41;68.82
49315;BME280;36672;50.710;12.498;2022-08-07T04:40:58;99385.34;;;10.44;68.34
49315;BME280;36672;50.710;12.498;2022-08-07T04:43:30;99395.25;;;10.52;68.17
49315;BME280;36672;50.710;12.498;2022-08-07T04:50:52;99398.09;;;10.82;67.67
49315;BME280;36672;50.710;12.498;2022-08-07T04:53:23;99395.34;;;10.90;67.25
49315;BME280;36672;50.710;12.498;2022-08-07T04:55:52;99401.81;;;11.04;66.93
49315;BME280;36672;50.710;12.498;2022-08-07T05:03:19;99396.38;;;11.27;66.15
49315;BME280;36672;50.710;12.498;2022-08-07T05:06:08;99394.25;;;11.37;65.49
49315;BME280;36672;50.710;12.498;2022-08-07T05:08:41;99396.41;;;11.42;65.22
49315;BME280;36672;50.710;12.498;2022-08-07T05:11:12;99393.16;;;11.47;65.03
49315;BME280;36672;50.710;12.498;2022-08-07T05:13:40;99394.94;;;11.54;64.51
49315;BME280;36672;50.710;12.498;2022-08-07T05:16:08;99402.63;;;11.66;64.72
49315;BME280;36672;50.710;12.498;2022-08-07T05:18:35;99396.94;;;11.75;64.03
49315;BME280;36672;50.710;12.498;2022-08-07T05:21:04;99396.56;;;11.94;63.27
49315;BME280;36672;50.710;12.498;2022-08-07T05:26:05;99405.22;;;12.70;61.49
49315;BME280;36672;50.710;12.498;2022-08-07T05:28:34;99398.72;;;13.30;60.69
49315;BME280;36672;50.710;12.498;2022-08-07T05:31:01;99399.44;;;14.02;58.81
49315;BME280;36672;50.710;12.498;2022-08-07T05:33:27;99395.41;;;14.81;56.93
49315;BME280;36672;50.710;12.498;2022-08-07T05:35:54;99393.97;;;15.73;54.11
49315;BME280;36672;50.710;12.498;2022-08-07T05:38:20;99400.91;;;16.47;53.14
49315;BME280;36672;50.710;12.498;2022-08-07T05:40:48;99400.47;;;17.53;50.47
49315;BME280;36672;50.710;12.498;2022-08-07T05:43:14;99394.31;;;18.57;47.91
49315;BME280;36672;50.710;12.498;2022-08-07T05:45:41;99389.44;;;19.20;44.76
49315;BME280;36672;50.710;12.498;2022-08-07T05:48:06;99386.13;;;19.78;44.34
49315;BME280;36672;50.710;12.498;2022-08-07T05:50:32;99392.66;;;20.77;43.03
49315;BME280;36672;50.710;12.498;2022-08-07T05:52:58;99389.41;;;21.77;42.11
49315;BME280;36672;50.710;12.498;2022-08-07T05:55:24;99397.28;;;23.01;40.46
49315;BME280;36672;50.710;12.498;2022-08-07T05:57:49;99389.97;;;24.20;38.45
49315;BME280;36672;50.710;12.498;2022-08-07T06:00:14;99398.53;;;24.87;35.24
49315;BME280;36672;50.710;12.498;2022-08-07T06:02:40;99397.75;;;25.84;35.46
49315;BME280;36672;50.710;12.498;2022-08-07T06:05:09;99396.50;;;26.97;33.70
49315;BME280;36672;50.710;12.498;2022-08-07T06:07:36;99394.28;;;27.98;31.81
49315;BME280;36672;50.710;12.498;2022-08-07T06:10:02;99388.25;;;28.20;30.94
49315;BME280;36672;50.710;12.498;2022-08-07T06:12:27;99385.72;;;28.67;30.82
49315;BME280;36672;50.710;12.498;2022-08-07T06:14:53;99381.91;;;29.01;27.52
49315;BME280;36672;50.710;12.498;2022-08-07T06:17:19;99388.13;;;29.31;28.94
49315;BME280;36672;50.710;12.498;2022-08-07T06:19:44;99383.16;;;29.94;28.77
49315;BME280;36672;50.710;12.498;2022-08-07T06:22:10;99384.16;;;30.82;28.55
49315;BME280;36672;50.710;12.498;2022-08-07T06:24:36;99380.19;;;31.87;27.31
49315;BME280;36672;50.710;12.498;2022-08-07T06:27:02;99379.19;;;32.81;26.44
49315;BME280;36672;50.710;12.498;2022-08-07T06:29:27;99383.63;;;33.26;24.48
49315;BME280;36672;50.710;12.498;2022-08-07T06:31:53;99385.44;;;33.57;24.33
49315;BME280;36672;50.710;12.498;2022-08-07T06:34:18;99372.22;;;33.84;23.82
49315;BME280;36672;50.710;12.498;2022-08-07T06:36:43;99381.09;;;34.34;24.40
49315;BME280;36672;50.710;12.498;2022-08-07T06:39:09;99377.41;;;35.14;23.38
49315;BME280;36672;50.710;12.498;2022-08-07T06:41:34;99381.44;;;35.92;21.89
49315;BME280;36672;50.710;12.498;2022-08-07T06:44:02;99381.00;;;36.40;21.08
49315;BME280;36672;50.710;12.498;2022-08-07T06:46:29;99373.41;;;36.81;21.15
49315;BME280;36672;50.710;12.498;2022-08-07T06:48:54;99377.28;;;37.30;20.99
49315;BME280;36672;50.710;12.498;2022-08-07T06:51:20;99380.78;;;38.15;20.45
49315;BME280;36672;50.710;12.498;2022-08-07T06:53:47;99377.84;;;38.60;20.32
49315;BME280;36672;50.710;12.498;2022-08-07T06:56:12;99376.44;;;38.86;19.91
49315;BME280;36672;50.710;12.498;2022-08-07T06:58:39;99374.88;;;39.08;19.00
49315;BME280;36672;50.710;12.498;2022-08-07T07:01:06;99377.72;;;39.27;19.64
49315;BME280;36672;50.710;12.498;2022-08-07T07:03:33;99375.56;;;39.63;19.07
49315;BME280;36672;50.710;12.498;2022-08-07T07:05:59;99367.75;;;40.23;18.45
49315;BME280;36672;50.710;12.498;2022-08-07T07:08:25;99361.78;;;40.85;18.03
49315;BME280;36672;50.710;12.498;2022-08-07T07:10:51;99353.47;;;41.30;17.32
49315;BME280;36672;50.710;12.498;2022-08-07T07:13:18;99356.63;;;41.59;16.96
49315;BME280;36672;50.710;12.498;2022-08-07T07:15:47;99359.34;;;41.86;17.38
49315;BME280;36672;50.710;12.498;2022-08-07T07:18:20;99363.66;;;42.21;17.33
49315;BME280;36672;50.710;12.498;2022-08-07T07:20:48;99362.81;;;42.69;16.66
49315;BME280;36672;50.710;12.498;2022-08-07T07:23:15;99361.47;;;43.33;15.83
49315;BME280;36672;50.710;12.498;2022-08-07T07:25:40;99355.47;;;43.71;15.53
49315;BME280;36672;50.710;12.498;2022-08-07T07:28:20;99364.03;;;43.99;15.82
49315;BME280;36672;50.710;12.498;2022-08-07T07:30:49;99353.34;;;43.42;15.56
49315;BME280;36672;50.710;12.498;2022-08-07T07:33:17;99358.00;;;41.04;17.14
49315;BME280;36672;50.710;12.498;2022-08-07T07:35:45;99354.06;;;38.77;18.56
49315;BME280;36672;50.710;12.498;2022-08-07T07:38:11;99344.38;;;36.65;19.91
49315;BME280;36672;50.710;12.498;2022-08-07T07:40:37;99347.41;;;34.63;21.73
49315;BME280;36672;50.710;12.498;2022-08-07T07:43:04;99343.13;;;33.06;23.74
49315;BME280;36672;50.710;12.498;2022-08-07T07:45:29;99337.28;;;31.92;24.67
49315;BME280;36672;50.710;12.498;2022-08-07T07:47:55;99332.44;;;31.21;25.53
49315;BME280;36672;50.710;12.498;2022-08-07T07:50:22;99335.06;;;30.58;25.99
49315;BME280;36672;50.710;12.498;2022-08-07T07:52:48;99328.25;;;30.08;26.21
49315;BME280;36672;50.710;12.498;2022-08-07T07:55:16;99326.06;;;29.77;26.63
49315;BME280;36672;50.710;12.498;2022-08-07T07:57:42;99325.47;;;30.08;26.51
49315;BME280;36672;50.710;12.498;2022-08-07T08:00:08;99322.38;;;30.97;25.25
49315;BME280;36672;50.710;12.498;2022-08-07T08:02:35;99324.22;;;31.16;24.74
49315;BME280;36672;50.710;12.498;2022-08-07T08:05:02;99321.53;;;31.11;24.62
49315;BME280;36672;50.710;12.498;2022-08-07T08:07:28;99328.06;;;31.29;24.92
49315;BME280;36672;50.710;12.498;2022-08-07T08:09:54;99322.56;;;31.15;24.74
49315;BME280;36672;50.710;12.498;2022-08-07T08:12:21;99313.88;;;31.16;24.93
49315;BME280;36672;50.710;12.498;2022-08-07T08:14:46;99316.88;;;31.83;24.43
49315;BME280;36672;50.710;12.498;2022-08-07T08:17:11;99322.03;;;32.47;23.34
49315;BME280;36672;50.710;12.498;2022-08-07T08:19:37;99313.91;;;32.19;23.66
49315;BME280;36672;50.710;12.498;2022-08-07T08:22:04;99314.06;;;31.74;23.86
49315;BME280;36672;50.710;12.498;2022-08-07T08:24:49;99314.91;;;30.84;24.30
49315;BME280;36672;50.710;12.498;2022-08-07T08:27:35;99317.00;;;29.86;24.95
49315;BME280;36672;50.710;12.498;2022-08-07T08:30:02;99309.44;;;29.72;25.98
49315;BME280;36672;50.710;12.498;2022-08-07T08:32:28;99310.19;;;29.31;26.05
49315;BME280;36672;50.710;12.498;2022-08-07T08:34:56;99312.88;;;28.65;26.21
49315;BME280;36672;50.710;12.498;2022-08-07T08:37:22;99304.88;;;27.72;27.03
49315;BME280;36672;50.710;12.498;2022-08-07T08:39:49;99305.56;;;26.94;27.82
49315;BME280;36672;50.710;12.498;2022-08-07T08:42:20;99311.16;;;26.39;28.74
49315;BME280;36672;50.710;12.498;2022-08-07T08:45:09;99300.94;;;26.34;29.23
49315;BME280;36672;50.710;12.498;2022-08-07T08:50:36;99305.09;;;26.32;27.83
49315;BME280;36672;50.710;12.498;2022-08-07T08:53:14;99306.47;;;26.34;27.52
49315;BME280;36672;50.710;12.498;2022-08-07T08:55:50;99302.47;;;26.56;27.08
49315;BME280;36672;50.710;12.498;2022-08-07T09:00:43;99295.44;;;26.69;27.34
49315;BME280;36672;50.710;12.498;2022-08-07T09:10:33;99295.94;;;25.61;28.48
49315;BME280;36672;50.710;12.498;2022-08-07T09:28:02;99278.56;;;25.14;28.87
49315;BME280;36672;50.710;12.498;2022-08-07T09:30:36;99270.53;;;25.07;29.01
49315;BME280;36672;50.710;12.498;2022-08-07T09:33:09;99266.13;;;25.01;28.94
49315;BME280;36672;50.710;12.498;2022-08-07T09:38:24;99267.22;;;24.95;29.05
49315;BME280;36672;50.710;12.498;2022-08-07T09:48:35;99254.44;;;25.61;28.28
49315;BME280;36672;50.710;12.498;2022-08-07T09:53:30;99247.28;;;25.39;28.07
49315;BME280;36672;50.710;12.498;2022-08-07T09:58:35;99237.38;;;24.66;29.29
49315;BME280;36672;50.710;12.498;2022-08-07T10:01:18;99239.53;;;24.48;29.20
49315;BME280;36672;50.710;12.498;2022-08-07T10:03:52;99238.16;;;24.51;29.30
49315;BME280;36672;50.710;12.498;2022-08-07T10:06:28;99235.09;;;24.52;29.78
49315;BME280;36672;50.710;12.498;2022-08-07T10:09:03;99239.31;;;24.65;29.41
49315;BME280;36672;50.710;12.498;2022-08-07T10:14:08;99223.81;;;24.85;29.07
49315;BME280;36672;50.710;12.498;2022-08-07T10:24:01;99217.47;;;25.00;29.35
49315;BME280;36672;50.710;12.498;2022-08-07T10:26:35;99211.94;;;25.05;28.62
49315;BME280;36672;50.710;12.498;2022-08-07T10:31:39;99212.50;;;25.02;28.70
49315;BME280;36672;50.710;12.498;2022-08-07T10:44:37;99192.28;;;25.01;28.16
49315;BME280;36672;50.710;12.498;2022-08-07T10:49:55;99179.06;;;24.88;28.39
49315;BME280;36672;50.710;12.498;2022-08-07T10:52:24;99178.78;;;24.84;28.60
49315;BME280;36672;50.710;12.498;2022-08-07T10:54:56;99178.72;;;25.10;28.35
49315;BME280;36672;50.710;12.498;2022-08-07T11:00:07;99174.28;;;25.14;28.45
49315;BME280;36672;50.710;12.498;2022-08-07T11:02:36;99169.88;;;25.08;28.33
49315;BME280;36672;50.710;12.498;2022-08-07T11:10:23;99165.47;;;24.97;28.65
49315;BME280;36672;50.710;12.498;2022-08-07T11:12:51;99159.72;;;24.93;28.14
49315;BME280;36672;50.710;12.498;2022-08-07T11:15:21;99154.44;;;24.86;28.53
49315;BME280;36672;50.710;12.498;2022-08-07T11:25:16;99151.97;;;24.49;29.22
49315;BME280;36672;50.710;12.498;2022-08-07T11:30:16;99139.81;;;24.60;29.30
49315;BME280;36672;50.710;12.498;2022-08-07T11:32:46;99134.31;;;24.75;28.80
49315;BME280;36672;50.710;12.498;2022-08-07T11:43:00;99107.22;;;27.02;25.82
49315;BME280;36672;50.710;12.498;2022-08-07T11:51:03;99126.28;;;27.95;25.07
49315;BME280;36672;50.710;12.498;2022-08-07T11:58:43;99103.47;;;27.41;25.11
49315;BME280;36672;50.710;12.498;2022-08-07T12:01:16;99105.16;;;27.13;25.59
49315;BME280;36672;50.710;12.498;2022-08-07T12:06:47;99104.47;;;27.70;25.22
49315;BME280;36672;50.710;12.498;2022-08-07T12:09:16;99104.47;;;27.89;24.69
49315;BME280;36672;50.710;12.498;2022-08-07T12:14:24;99092.38;;;27.79;25.24
49315;BME280;36672;50.710;12.498;2022-08-07T12:16:57;99097.22;;;27.49;25.22
49315;BME280;36672;50.710;12.498;2022-08-07T12:24:40;99084.13;;;26.53;26.18
49315;BME280;36672;50.710;12.498;2022-08-07T12:27:32;99081.41;;;26.48;26.35
49315;BME280;36672;50.710;12.498;2022-08-07T12:30:01;99087.09;;;26.32;26.54
49315;BME280;36672;50.710;12.498;2022-08-07T12:34:52;99082.59;;;26.07;26.59
49315;BME280;36672;50.710;12.498;2022-08-07T12:37:18;99087.97;;;25.83;26.94
49315;BME280;36672;50.710;12.498;2022-08-07T12:39:45;99085.31;;;25.67;27.30
49315;BME280;36672;50.710;12.498;2022-08-07T12:42:11;99077.81;;;25.73;27.15
49315;BME280;36672;50.710;12.498;2022-08-07T12:44:40;99069.78;;;25.77;27.28
49315;BME280;36672;50.710;12.498;2022-08-07T12:49:34;99076.75;;;25.64;27.06
49315;BME280;36672;50.710;12.498;2022-08-07T12:52:06;99072.34;;;25.63;27.22
49315;BME280;36672;50.710;12.498;2022-08-07T12:54:42;99065.41;;;25.65;27.08
49315;BME280;36672;50.710;12.498;2022-08-07T12:57:08;99063.44;;;25.71;27.23
49315;BME280;36672;50.710;12.498;2022-08-07T12:59:34;99064.03;;;25.63;26.99
49315;BME280;36672;50.710;12.498;2022-08-07T13:02:05;99066.00;;;25.57;27.10
49315;BME280;36672;50.710;12.498;2022-08-07T13:15:09;99053.13;;;25.27;27.81
49315;BME280;36672;50.710;12.498;2022-08-07T13:17:43;99042.31;;;25.40;27.81
49315;BME280;36672;50.710;12.498;2022-08-07T13:20:22;99040.63;;;25.45;27.50
49315;BME280;36672;50.710;12.498;2022-08-07T13:22:51;99037.56;;;25.51;27.32
49315;BME280;36672;50.710;12.498;2022-08-07T13:25:29;99026.97;;;25.59;27.30
49315;BME280;36672;50.710;12.498;2022-08-07T13:27:58;99033.84;;;25.66;27.34
49315;BME280;36672;50.710;12.498;2022-08-07T13:30:25;99038.03;;;25.59;27.22
49315;BME280;36672;50.710;12.498;2022-08-07T13:32:54;99034.78;;;25.51;27.61
49315;BME280;36672;50.710;12.498;2022-08-07T13:35:27;99032.88;;;25.47;27.16
49315;BME280;36672;50.710;12.498;2022-08-07T13:40:28;99007.78;;;25.28;27.65
49315;BME280;36672;50.710;12.498;2022-08-07T13:42:57;99019.91;;;25.37;27.56
49315;BME280;36672;50.710;12.498;2022-08-07T13:45:23;99018.00;;;25.37;26.92
49315;BME280;36672;50.710;12.498;2022-08-07T13:47:49;99017.16;;;25.32;27.25
49315;BME280;36672;50.710;12.498;2022-08-07T13:50:16;99010.25;;;25.29;27.13
49315;BME280;36672;50.710;12.498;2022-08-07T13:52:43;99003.34;;;25.27;27.30
49315;BME280;36672;50.710;12.498;2022-08-07T13:55:10;98999.25;;;25.19;27.03
49315;BME280;36672;50.710;12.498;2022-08-07T13:57:37;99003.09;;;25.23;27.54
49315;BME280;36672;50.710;12.498;2022-08-07T14:00:04;98998.34;;;25.34;27.36
49315;BME280;36672;50.710;12.498;2022-08-07T14:02:32;98986.97;;;25.40;27.46
49315;BME280;36672;50.710;12.498;2022-08-07T14:04:59;98992.44;;;25.51;27.50
49315;BME280;36672;50.710;12.498;2022-08-07T14:07:46;98982.75;;;25.53;27.15
49315;BME280;36672;50.710;12.498;2022-08-07T14:10:11;98986.09;;;25.50;27.19
49315;BME280;36672;50.710;12.498;2022-08-07T14:17:45;98975.66;;;25.37;26.92
49315;BME280;36672;50.710;12.498;2022-08-07T14:22:39;98980.00;;;25.48;27.23
49315;BME280;36672;50.710;12.498;2022-08-07T14:25:07;98993.81;;;25.53;26.88
49315;BME280;36672;50.710;12.498;2022-08-07T14:27:42;98984.41;;;25.54;26.64
49315;BME280;36672;50.710;12.498;2022-08-07T14:30:09;98981.03;;;25.63;26.45
49315;BME280;36672;50.710;12.498;2022-08-07T14:32:43;98984.00;;;25.71;26.65
49315;BME280;36672;50.710;12.498;2022-08-07T14:35:18;98979.84;;;25.69;26.54
49315;BME280;36672;50.710;12.498;2022-08-07T14:37:44;98980.66;;;25.75;26.93
49315;BME280;36672;50.710;12.498;2022-08-07T14:40:14;98988.88;;;25.85;26.73
49315;BME280;36672;50.710;12.498;2022-08-07T14:42:40;98971.16;;;25.86;26.40
49315;BME280;36672;50.710;12.498;2022-08-07T14:45:05;98970.50;;;25.94;26.49
49315;BME280;36672;50.710;12.498;2022-08-07T14:47:35;98970.19;;;26.06;26.49
49315;BME280;36672;50.710;12.498;2022-08-07T14:50:04;98973.44;;;26.13;26.41
49315;BME280;36672;50.710;12.498;2022-08-07T14:52:30;98976.16;;;26.18;26.48
49315;BME280;36672;50.710;12.498;2022-08-07T14:54:58;98975.81;;;26.25;26.23
49315;BME280;36672;50.710;12.498;2022-08-07T14:57:25;98971.03;;;26.31;26.38
49315;BME280;36672;50.710;12.498;2022-08-07T14:59:50;98972.09;;;26.35;26.56
49315;BME280;36672;50.710;12.498;2022-08-07T15:02:17;98971.84;;;26.02;26.55
49315;BME280;36672;50.710;12.498;2022-08-07T15:04:45;98965.31;;;25.87;26.55
49315;BME280;36672;50.710;12.498;2022-08-07T15:07:15;98971.50;;;25.79;26.56
49315;BME280;36672;50.710;12.498;2022-08-07T15:09:41;98965.13;;;25.79;26.73
49315;BME280;36672;50.710;12.498;2022-08-07T15:12:09;98964.31;;;25.78;26.62
49315;BME280;36672;50.710;12.498;2022-08-07T15:14:35;98968.00;;;25.63;26.71
49315;BME280;36672;50.710;12.498;2022-08-07T15:17:03;98961.16;;;25.55;27.00
49315;BME280;36672;50.710;12.498;2022-08-07T15:19:36;98962.72;;;25.67;26.79
49315;BME280;36672;50.710;12.498;2022-08-07T15:22:03;98966.28;;;25.72;26.67
49315;BME280;36672;50.710;12.498;2022-08-07T15:24:33;98958.22;;;25.76;26.79
49315;BME280;36672;50.710;12.498;2022-08-07T15:29:32;98967.88;;;25.79;26.81